Terminal Aerodrome Forecast
Issued by NWS Sterling, VA

Home | Current Version | Previous Version | Text Only | Print | Product List | Glossary On
Versions: 1 2 3 4 5 6 7 8 9 10 11 12 13 14 15 16 17
000
FTUS41 KLWX 282340
TAFMRB
TAF
KMRB 282340Z 2900/2924 32013G20KT P6SM FEW060
     FM290100 32008KT P6SM FEW080
     FM291700 29005KT P6SM FEW250
     FM292000 23006KT P6SM FEW250
     FM292300 17005KT P6SM SCT250=

USA.gov is the U.S. government's official web portal to all federal, state and local government web resources and services.